createdAt,value
2023-03-23T15:58:26.415Z,13.68
2023-03-23T16:00:57.631Z,13.64
2023-03-23T16:03:31.371Z,13.67
2023-03-23T16:06:03.390Z,13.69
2023-03-23T16:08:34.083Z,13.69
2023-03-23T16:11:04.961Z,13.68
2023-03-23T16:13:35.633Z,13.67
2023-03-23T16:16:09.428Z,13.68
2023-03-23T16:18:40.008Z,13.68
2023-03-23T16:21:12.065Z,13.67
2023-03-23T16:23:44.800Z,13.68
2023-03-23T16:26:18.668Z,13.68
2023-03-23T16:28:49.577Z,13.69
2023-03-23T16:31:20.458Z,13.68
2023-03-23T16:33:51.543Z,13.69
2023-03-23T16:36:22.403Z,13.68
2023-03-23T16:38:54.698Z,13.67
2023-03-23T16:41:25.819Z,13.65
2023-03-23T16:43:57.468Z,13.63
2023-03-23T16:46:29.688Z,13.62
2023-03-23T16:49:00.710Z,13.59
2023-03-23T16:51:31.944Z,13.57
2023-03-23T16:54:02.861Z,13.55
2023-03-23T16:56:33.664Z,13.52
2023-03-23T16:59:04.688Z,13.49
2023-03-23T17:01:35.536Z,13.47
2023-03-23T17:04:06.834Z,13.45
2023-03-23T17:06:37.586Z,13.44
2023-03-23T17:09:10.132Z,13.42
2023-03-23T17:11:40.970Z,13.41
2023-03-23T17:14:11.731Z,13.40
2023-03-23T17:16:42.722Z,13.37
2023-03-23T17:19:14.404Z,13.35
2023-03-23T17:21:47.704Z,13.33
2023-03-23T17:24:18.803Z,13.30
2023-03-23T17:26:49.439Z,13.27
2023-03-23T17:29:22.683Z,13.23
2023-03-23T17:31:53.978Z,13.19
2023-03-23T17:34:23.223Z,13.14
2023-03-23T17:36:53.978Z,13.07
2023-03-23T17:39:24.769Z,13.01
2023-03-23T17:41:55.561Z,12.97
2023-03-23T17:44:26.430Z,12.92
2023-03-23T17:46:57.543Z,12.87
2023-03-23T17:49:30.309Z,12.84
2023-03-23T17:52:01.674Z,12.81
2023-03-23T17:54:32.631Z,12.76
2023-03-23T17:57:04.291Z,12.74
2023-03-23T17:59:39.626Z,12.71
2023-03-23T18:02:29.211Z,12.67
2023-03-23T18:05:01.050Z,12.64
2023-03-23T18:07:31.763Z,12.60
2023-03-23T18:10:03.017Z,12.56
2023-03-23T18:12:32.025Z,12.50
2023-03-23T18:15:02.860Z,12.46
2023-03-23T18:17:34.118Z,12.42
2023-03-23T18:20:05.248Z,12.40
2023-03-23T18:22:34.754Z,12.38
2023-03-23T18:25:06.917Z,12.36
2023-03-23T18:27:40.089Z,12.33
2023-03-23T18:30:12.463Z,12.30
2023-03-23T18:32:46.741Z,12.28
2023-03-23T18:35:19.991Z,12.28
2023-03-23T18:37:50.672Z,12.26
2023-03-23T18:40:21.469Z,12.26
2023-03-23T18:42:52.169Z,12.25
2023-03-23T18:45:25.625Z,12.24
2023-03-23T18:47:57.092Z,12.24
2023-03-23T18:50:28.993Z,12.24
2023-03-23T18:53:00.079Z,12.24
2023-03-23T18:55:34.716Z,12.26
2023-03-23T18:58:05.468Z,12.28
2023-03-23T19:00:37.437Z,12.32
2023-03-23T19:03:13.755Z,12.34
2023-03-23T19:05:45.826Z,12.36
2023-03-23T19:08:17.264Z,12.38
2023-03-23T19:10:48.088Z,12.38
2023-03-23T19:13:18.959Z,12.40
2023-03-23T19:15:49.799Z,12.41
2023-03-23T19:18:20.692Z,12.43
2023-03-23T19:23:28.028Z,12.47
2023-03-23T19:25:58.858Z,12.47
2023-03-23T19:31:09.732Z,12.45
2023-03-23T19:33:40.866Z,12.45
2023-03-23T19:36:13.459Z,12.43
2023-03-23T19:38:47.518Z,12.41
2023-03-23T19:41:19.285Z,12.41
2023-03-23T19:43:56.524Z,12.41
2023-03-23T19:46:37.602Z,12.37
2023-03-23T19:49:10.793Z,12.36
2023-03-23T19:51:41.458Z,12.35
2023-03-23T19:54:13.373Z,12.34
2023-03-23T19:56:44.389Z,12.34
2023-03-23T19:59:16.653Z,12.33
2023-03-23T20:01:48.293Z,12.34
2023-03-23T20:04:21.170Z,12.39
2023-03-23T20:06:52.505Z,12.42
2023-03-23T20:09:21.736Z,12.50
2023-03-23T20:11:52.437Z,12.62
2023-03-23T20:14:29.408Z,12.80
2023-03-23T20:17:14.062Z,12.98
2023-03-23T20:19:54.997Z,13.21
2023-03-23T20:22:26.323Z,13.39
2023-03-23T20:24:57.351Z,13.51
2023-03-23T20:27:31.101Z,13.62
2023-03-23T20:30:04.093Z,13.71
2023-03-23T20:32:35.166Z,13.81
2023-03-23T20:35:08.837Z,13.94
2023-03-23T20:37:41.078Z,14.00
2023-03-23T20:40:14.475Z,14.06
2023-03-23T20:42:45.526Z,14.09
2023-03-23T20:45:18.534Z,14.14
2023-03-23T20:47:49.223Z,14.16
2023-03-23T20:50:22.826Z,14.20
2023-03-23T20:52:54.787Z,14.25
2023-03-23T20:55:29.571Z,14.30
2023-03-23T20:58:00.149Z,14.33
2023-03-23T21:00:30.878Z,14.35
2023-03-23T21:03:01.641Z,14.39
2023-03-23T21:05:32.656Z,14.41
2023-03-23T21:08:03.615Z,14.41
2023-03-23T21:10:34.713Z,14.41
2023-03-23T21:13:06.635Z,14.39
2023-03-23T21:15:37.828Z,14.39
2023-03-23T21:18:09.046Z,14.40
2023-03-23T21:20:40.720Z,14.39
2023-03-23T21:23:14.560Z,14.40
2023-03-23T21:25:46.392Z,14.40
2023-03-23T21:28:17.498Z,14.39
2023-03-23T21:30:48.846Z,14.40
2023-03-23T21:33:18.028Z,14.41
2023-03-23T21:35:48.860Z,14.41
2023-03-23T21:38:19.953Z,14.39
2023-03-23T21:40:50.670Z,14.38
2023-03-23T21:43:27.664Z,14.37
2023-03-23T21:46:04.796Z,14.34
2023-03-23T21:48:38.758Z,14.31
2023-03-23T21:51:16.135Z,14.30
2023-03-23T21:53:47.164Z,14.29
2023-03-23T21:56:18.819Z,14.30
2023-03-23T21:58:49.860Z,14.31
2023-03-23T22:01:22.316Z,14.32
2023-03-23T22:03:53.231Z,14.33
2023-03-23T22:06:26.813Z,14.34
2023-03-23T22:08:58.062Z,14.33
2023-03-23T22:11:31.709Z,14.32
2023-03-23T22:14:03.648Z,14.31
2023-03-23T22:16:34.722Z,14.33
2023-03-23T22:19:05.550Z,14.34
2023-03-23T22:21:36.612Z,14.34
2023-03-23T22:24:07.901Z,14.32
2023-03-23T22:26:38.688Z,14.31
2023-03-23T22:29:11.310Z,14.34
2023-03-23T22:31:42.128Z,14.33
2023-03-23T22:34:14.313Z,14.29
2023-03-23T22:36:45.143Z,14.24
2023-03-23T22:39:15.949Z,14.19
2023-03-23T22:41:46.607Z,14.16
2023-03-23T22:44:19.469Z,14.09
2023-03-23T22:46:52.601Z,14.01
2023-03-23T22:49:23.357Z,13.95
2023-03-23T22:51:54.052Z,13.90
2023-03-23T22:54:24.995Z,13.87
2023-03-23T22:56:55.852Z,13.85
2023-03-23T22:59:26.619Z,13.82
2023-03-23T23:01:57.490Z,13.79
2023-03-23T23:04:28.571Z,13.78
2023-03-23T23:07:10.434Z,13.75
2023-03-23T23:09:44.435Z,13.73
2023-03-23T23:12:17.048Z,13.72
2023-03-23T23:14:47.825Z,13.73
2023-03-23T23:17:18.497Z,13.77
2023-03-23T23:19:49.089Z,13.78
2023-03-23T23:22:19.929Z,13.78
2023-03-23T23:24:50.639Z,13.78
2023-03-23T23:27:21.577Z,13.77
2023-03-23T23:29:52.471Z,13.77
2023-03-23T23:32:23.430Z,13.77
2023-03-23T23:34:54.251Z,13.76
2023-03-23T23:37:24.871Z,13.78
2023-03-23T23:39:55.612Z,13.77
2023-03-23T23:42:26.697Z,13.76
2023-03-23T23:44:57.670Z,13.74
2023-03-23T23:47:28.437Z,13.74
2023-03-23T23:49:59.232Z,13.73
2023-03-23T23:52:30.069Z,13.69
2023-03-23T23:55:01.092Z,13.61
2023-03-23T23:57:31.961Z,13.53
